sensor_id;sensor_type;location;lat;lon;timestamp;temperature;humidity
2657;DHT22;1338;48.176;11.792;2022-11-25T00:01:16;0.10;51.80
2657;DHT22;1338;48.176;11.792;2022-11-25T00:03:46;0.10;58.20
2657;DHT22;1338;48.176;11.792;2022-11-25T00:06:15;0.20;99.90
2657;DHT22;1338;48.176;11.792;2022-11-25T00:08:45;0.20;99.90
2657;DHT22;1338;48.176;11.792;2022-11-25T00:11:16;0.30;99.90
2657;DHT22;1338;48.176;11.792;2022-11-25T00:13:46;0.30;99.90
2657;DHT22;1338;48.176;11.792;2022-11-25T00:16:15;0.40;99.90
2657;DHT22;1338;48.176;11.792;2022-11-25T00:18:44;0.30;99.90
2657;DHT22;1338;48.176;11.792;2022-11-25T00:21:14;0.30;99.90
2657;DHT22;1338;48.176;11.792;2022-11-25T00:23:43;0.30;69.80
2657;DHT22;1338;48.176;11.792;2022-11-25T00:26:12;0.30;99.90
2657;DHT22;1338;48.176;11.792;2022-11-25T00:28:43;0.30;66.20
2657;DHT22;1338;48.176;11.792;2022-11-25T00:31:13;0.30;84.60
2657;DHT22;1338;48.176;11.792;2022-11-25T00:33:42;0.20;54.80
2657;DHT22;1338;48.176;11.792;2022-11-25T00:36:15;0.10;42.80
2657;DHT22;1338;48.176;11.792;2022-11-25T00:38:44;0.00;44.00
2657;DHT22;1338;48.176;11.792;2022-11-25T00:41:12;-0.10;77.40
2657;DHT22;1338;48.176;11.792;2022-11-25T00:44:00;-0.10;99.90
2657;DHT22;1338;48.176;11.792;2022-11-25T00:46:45;-0.10;99.90
2657;DHT22;1338;48.176;11.792;2022-11-25T00:49:13;-0.10;99.90
2657;DHT22;1338;48.176;11.792;2022-11-25T00:51:42;-0.10;99.90
2657;DHT22;1338;48.176;11.792;2022-11-25T00:54:12;-0.10;99.90
2657;DHT22;1338;48.176;11.792;2022-11-25T00:56:40;0.10;99.90
2657;DHT22;1338;48.176;11.792;2022-11-25T00:59:10;0.10;99.90
2657;DHT22;1338;48.176;11.792;2022-11-25T01:01:38;-0.10;99.90
2657;DHT22;1338;48.176;11.792;2022-11-25T01:04:06;-0.30;53.40
2657;DHT22;1338;48.176;11.792;2022-11-25T01:06:36;-0.20;99.90
2657;DHT22;1338;48.176;11.792;2022-11-25T01:09:05;-0.30;99.90
2657;DHT22;1338;48.176;11.792;2022-11-25T01:11:34;-0.30;99.90
2657;DHT22;1338;48.176;11.792;2022-11-25T01:14:02;-0.40;99.90
2657;DHT22;1338;48.176;11.792;2022-11-25T01:16:32;-0.40;99.90
2657;DHT22;1338;48.176;11.792;2022-11-25T01:19:00;-0.40;99.90
2657;DHT22;1338;48.176;11.792;2022-11-25T01:21:30;-0.50;99.90
2657;DHT22;1338;48.176;11.792;2022-11-25T01:23:59;-0.40;99.90
2657;DHT22;1338;48.176;11.792;2022-11-25T01:26:28;-0.40;99.90
2657;DHT22;1338;48.176;11.792;2022-11-25T01:28:58;-0.40;99.90
2657;DHT22;1338;48.176;11.792;2022-11-25T01:31:29;-0.50;99.90
2657;DHT22;1338;48.176;11.792;2022-11-25T01:34:03;-0.50;99.90
2657;DHT22;1338;48.176;11.792;2022-11-25T01:36:31;-0.60;99.90
2657;DHT22;1338;48.176;11.792;2022-11-25T01:39:02;-0.60;99.90
2657;DHT22;1338;48.176;11.792;2022-11-25T01:41:32;-0.60;99.90
2657;DHT22;1338;48.176;11.792;2022-11-25T01:44:10;-0.60;99.90
2657;DHT22;1338;48.176;11.792;2022-11-25T01:46:49;-0.50;99.90
2657;DHT22;1338;48.176;11.792;2022-11-25T01:49:23;-0.40;99.90
2657;DHT22;1338;48.176;11.792;2022-11-25T01:51:56;-0.40;99.90
2657;DHT22;1338;48.176;11.792;2022-11-25T01:54:28;-0.60;99.90
2657;DHT22;1338;48.176;11.792;2022-11-25T01:57:00;-0.60;99.90
2657;DHT22;1338;48.176;11.792;2022-11-25T01:59:31;-0.70;99.90
2657;DHT22;1338;48.176;11.792;2022-11-25T02:02:01;-0.60;99.90
2657;DHT22;1338;48.176;11.792;2022-11-25T02:04:33;-0.60;99.90
2657;DHT22;1338;48.176;11.792;2022-11-25T02:07:09;-0.50;99.90
2657;DHT22;1338;48.176;11.792;2022-11-25T02:09:41;-0.50;99.90
2657;DHT22;1338;48.176;11.792;2022-11-25T02:12:09;-0.50;99.90
2657;DHT22;1338;48.176;11.792;2022-11-25T02:14:38;-0.40;99.90
2657;DHT22;1338;48.176;11.792;2022-11-25T02:17:07;-0.50;99.90
2657;DHT22;1338;48.176;11.792;2022-11-25T02:19:52;-0.70;99.90
2657;DHT22;1338;48.176;11.792;2022-11-25T02:22:29;-0.80;99.90
2657;DHT22;1338;48.176;11.792;2022-11-25T02:25:09;-0.90;99.90
2657;DHT22;1338;48.176;11.792;2022-11-25T02:27:37;-0.80;99.90
2657;DHT22;1338;48.176;11.792;2022-11-25T02:30:06;-0.70;99.90
2657;DHT22;1338;48.176;11.792;2022-11-25T02:32:35;-0.70;99.90
2657;DHT22;1338;48.176;11.792;2022-11-25T02:35:21;-0.80;99.90
2657;DHT22;1338;48.176;11.792;2022-11-25T02:37:51;-0.80;99.90
2657;DHT22;1338;48.176;11.792;2022-11-25T02:40:23;-0.70;99.90
2657;DHT22;1338;48.176;11.792;2022-11-25T02:42:55;-0.70;99.90
2657;DHT22;1338;48.176;11.792;2022-11-25T02:45:32;-0.60;99.90
2657;DHT22;1338;48.176;11.792;2022-11-25T02:48:02;-0.60;99.90
2657;DHT22;1338;48.176;11.792;2022-11-25T02:50:31;-0.60;99.90
2657;DHT22;1338;48.176;11.792;2022-11-25T02:52:59;-0.70;99.90
2657;DHT22;1338;48.176;11.792;2022-11-25T02:55:28;-0.60;99.90
2657;DHT22;1338;48.176;11.792;2022-11-25T02:57:56;-0.70;99.90
2657;DHT22;1338;48.176;11.792;2022-11-25T03:00:25;-0.70;99.90
2657;DHT22;1338;48.176;11.792;2022-11-25T03:02:55;-0.80;99.90
2657;DHT22;1338;48.176;11.792;2022-11-25T03:05:23;-0.70;99.90
2657;DHT22;1338;48.176;11.792;2022-11-25T03:07:51;-0.60;99.90
2657;DHT22;1338;48.176;11.792;2022-11-25T03:10:20;-0.60;99.90
2657;DHT22;1338;48.176;11.792;2022-11-25T03:12:50;-0.70;99.90
2657;DHT22;1338;48.176;11.792;2022-11-25T03:15:19;-0.70;99.90
2657;DHT22;1338;48.176;11.792;2022-11-25T03:17:47;-0.70;99.90
2657;DHT22;1338;48.176;11.792;2022-11-25T03:20:16;-0.60;99.90
2657;DHT22;1338;48.176;11.792;2022-11-25T03:22:46;-0.70;99.90
2657;DHT22;1338;48.176;11.792;2022-11-25T03:25:15;-0.80;99.90
2657;DHT22;1338;48.176;11.792;2022-11-25T03:27:44;-0.80;99.90
2657;DHT22;1338;48.176;11.792;2022-11-25T03:30:16;-0.90;99.90
2657;DHT22;1338;48.176;11.792;2022-11-25T03:32:46;-0.80;99.90
2657;DHT22;1338;48.176;11.792;2022-11-25T03:35:15;-0.80;99.90
2657;DHT22;1338;48.176;11.792;2022-11-25T03:37:44;-0.80;99.90
2657;DHT22;1338;48.176;11.792;2022-11-25T03:40:13;-0.80;99.90
2657;DHT22;1338;48.176;11.792;2022-11-25T03:42:44;-0.80;99.90
2657;DHT22;1338;48.176;11.792;2022-11-25T03:45:16;-0.90;99.90
2657;DHT22;1338;48.176;11.792;2022-11-25T03:47:45;-0.90;1.00
2657;DHT22;1338;48.176;11.792;2022-11-25T03:50:14;-0.90;1.00
2657;DHT22;1338;48.176;11.792;2022-11-25T03:52:44;-0.90;1.00
2657;DHT22;1338;48.176;11.792;2022-11-25T03:55:13;-0.90;1.00
2657;DHT22;1338;48.176;11.792;2022-11-25T03:57:44;-0.90;1.00
2657;DHT22;1338;48.176;11.792;2022-11-25T04:00:13;-0.90;1.00
2657;DHT22;1338;48.176;11.792;2022-11-25T04:02:45;-0.90;1.00
2657;DHT22;1338;48.176;11.792;2022-11-25T04:05:15;-0.90;1.00
2657;DHT22;1338;48.176;11.792;2022-11-25T04:07:43;-0.90;1.00
2657;DHT22;1338;48.176;11.792;2022-11-25T04:10:12;-0.80;1.00
2657;DHT22;1338;48.176;11.792;2022-11-25T04:12:41;-0.90;1.00
2657;DHT22;1338;48.176;11.792;2022-11-25T04:15:21;-0.80;1.00
2657;DHT22;1338;48.176;11.792;2022-11-25T04:17:53;-0.70;1.00
2657;DHT22;1338;48.176;11.792;2022-11-25T04:20:21;-0.70;1.00
2657;DHT22;1338;48.176;11.792;2022-11-25T04:22:56;-0.80;99.90
2657;DHT22;1338;48.176;11.792;2022-11-25T04:25:24;-0.70;1.00
2657;DHT22;1338;48.176;11.792;2022-11-25T04:27:53;-0.60;1.00
2657;DHT22;1338;48.176;11.792;2022-11-25T04:30:27;-0.70;99.90
2657;DHT22;1338;48.176;11.792;2022-11-25T04:32:57;-0.60;1.00
2657;DHT22;1338;48.176;11.792;2022-11-25T04:35:25;-0.70;99.90
2657;DHT22;1338;48.176;11.792;2022-11-25T04:37:55;-0.50;1.00
2657;DHT22;1338;48.176;11.792;2022-11-25T04:40:24;-0.60;99.90
2657;DHT22;1338;48.176;11.792;2022-11-25T04:43:07;-0.90;99.90
2657;DHT22;1338;48.176;11.792;2022-11-25T04:45:40;-1.00;99.90
2657;DHT22;1338;48.176;11.792;2022-11-25T04:48:29;-1.00;99.90
2657;DHT22;1338;48.176;11.792;2022-11-25T04:50:57;-0.80;99.90
2657;DHT22;1338;48.176;11.792;2022-11-25T04:53:26;-0.80;99.90
2657;DHT22;1338;48.176;11.792;2022-11-25T04:55:54;-0.70;99.90
2657;DHT22;1338;48.176;11.792;2022-11-25T04:58:22;-0.80;99.90
2657;DHT22;1338;48.176;11.792;2022-11-25T05:01:05;-0.80;99.90
2657;DHT22;1338;48.176;11.792;2022-11-25T05:03:34;-1.00;99.90
2657;DHT22;1338;48.176;11.792;2022-11-25T05:06:05;-0.90;99.90
2657;DHT22;1338;48.176;11.792;2022-11-25T05:08:35;-0.80;99.90
2657;DHT22;1338;48.176;11.792;2022-11-25T05:11:03;-0.80;99.90
2657;DHT22;1338;48.176;11.792;2022-11-25T05:13:32;-0.70;99.90
2657;DHT22;1338;48.176;11.792;2022-11-25T05:16:01;-0.70;1.00
2657;DHT22;1338;48.176;11.792;2022-11-25T05:18:29;-0.90;99.90
2657;DHT22;1338;48.176;11.792;2022-11-25T05:21:01;-0.90;99.90
2657;DHT22;1338;48.176;11.792;2022-11-25T05:23:33;-0.70;1.00
2657;DHT22;1338;48.176;11.792;2022-11-25T05:26:02;-0.80;99.90
2657;DHT22;1338;48.176;11.792;2022-11-25T05:28:40;-0.70;99.90
2657;DHT22;1338;48.176;11.792;2022-11-25T05:31:10;-0.70;1.00
2657;DHT22;1338;48.176;11.792;2022-11-25T05:33:39;-0.60;1.00
2657;DHT22;1338;48.176;11.792;2022-11-25T05:36:10;-0.50;1.00
2657;DHT22;1338;48.176;11.792;2022-11-25T05:38:44;-0.40;1.00
2657;DHT22;1338;48.176;11.792;2022-11-25T05:41:23;-0.40;1.00
2657;DHT22;1338;48.176;11.792;2022-11-25T05:43:52;-0.50;1.00
2657;DHT22;1338;48.176;11.792;2022-11-25T05:46:21;-0.50;1.00
2657;DHT22;1338;48.176;11.792;2022-11-25T05:48:53;-0.40;1.00
2657;DHT22;1338;48.176;11.792;2022-11-25T05:51:24;-0.10;1.00
2657;DHT22;1338;48.176;11.792;2022-11-25T05:53:54;-0.30;1.00
2657;DHT22;1338;48.176;11.792;2022-11-25T05:56:27;-0.30;1.00
2657;DHT22;1338;48.176;11.792;2022-11-25T05:59:21;-0.30;1.00
2657;DHT22;1338;48.176;11.792;2022-11-25T06:02:00;-0.30;1.00
2657;DHT22;1338;48.176;11.792;2022-11-25T06:04:29;-0.40;1.00
2657;DHT22;1338;48.176;11.792;2022-11-25T06:06:59;-0.40;1.00
2657;DHT22;1338;48.176;11.792;2022-11-25T06:09:28;-0.50;99.90
2657;DHT22;1338;48.176;11.792;2022-11-25T06:11:56;-0.40;99.90
2657;DHT22;1338;48.176;11.792;2022-11-25T06:14:24;-0.30;1.00
2657;DHT22;1338;48.176;11.792;2022-11-25T06:16:52;-0.40;99.90
2657;DHT22;1338;48.176;11.792;2022-11-25T06:19:26;-0.30;99.90
2657;DHT22;1338;48.176;11.792;2022-11-25T06:21:54;-0.30;99.90
2657;DHT22;1338;48.176;11.792;2022-11-25T06:24:25;-0.30;99.90
2657;DHT22;1338;48.176;11.792;2022-11-25T06:26:58;-0.40;99.90
2657;DHT22;1338;48.176;11.792;2022-11-25T06:29:27;-0.40;99.90
2657;DHT22;1338;48.176;11.792;2022-11-25T06:31:55;-0.40;99.90
2657;DHT22;1338;48.176;11.792;2022-11-25T06:34:45;-0.40;99.90
2657;DHT22;1338;48.176;11.792;2022-11-25T06:37:26;-0.40;99.90
2657;DHT22;1338;48.176;11.792;2022-11-25T06:39:55;-0.30;99.90
2657;DHT22;1338;48.176;11.792;2022-11-25T06:42:24;-0.30;99.90
2657;DHT22;1338;48.176;11.792;2022-11-25T06:44:52;-0.30;99.90
2657;DHT22;1338;48.176;11.792;2022-11-25T06:47:20;-0.30;99.90
2657;DHT22;1338;48.176;11.792;2022-11-25T06:49:48;-0.30;99.90
2657;DHT22;1338;48.176;11.792;2022-11-25T06:52:17;-0.10;99.90
2657;DHT22;1338;48.176;11.792;2022-11-25T06:54:45;-0.10;99.90
2657;DHT22;1338;48.176;11.792;2022-11-25T06:57:17;0.00;99.90
2657;DHT22;1338;48.176;11.792;2022-11-25T06:59:45;0.00;99.90
2657;DHT22;1338;48.176;11.792;2022-11-25T07:02:14;0.00;53.20
2657;DHT22;1338;48.176;11.792;2022-11-25T07:04:42;0.10;86.40
2657;DHT22;1338;48.176;11.792;2022-11-25T07:07:10;0.10;22.40
2657;DHT22;1338;48.176;11.792;2022-11-25T07:09:39;0.10;1.00
2657;DHT22;1338;48.176;11.792;2022-11-25T07:12:07;0.20;1.00
2657;DHT22;1338;48.176;11.792;2022-11-25T07:14:36;0.30;1.00
2657;DHT22;1338;48.176;11.792;2022-11-25T07:17:05;0.40;1.00
2657;DHT22;1338;48.176;11.792;2022-11-25T07:19:37;0.40;1.00
2657;DHT22;1338;48.176;11.792;2022-11-25T07:22:06;0.50;1.00
2657;DHT22;1338;48.176;11.792;2022-11-25T07:24:34;0.50;1.00
2657;DHT22;1338;48.176;11.792;2022-11-25T07:27:03;0.80;1.00
2657;DHT22;1338;48.176;11.792;2022-11-25T07:29:32;0.70;1.00
2657;DHT22;1338;48.176;11.792;2022-11-25T07:32:23;1.10;1.00
2657;DHT22;1338;48.176;11.792;2022-11-25T07:34:51;1.00;1.00
2657;DHT22;1338;48.176;11.792;2022-11-25T07:37:19;1.20;1.00
2657;DHT22;1338;48.176;11.792;2022-11-25T07:39:47;1.20;1.00
2657;DHT22;1338;48.176;11.792;2022-11-25T07:42:15;1.20;99.90
2657;DHT22;1338;48.176;11.792;2022-11-25T07:44:43;1.20;99.90
2657;DHT22;1338;48.176;11.792;2022-11-25T07:47:45;1.20;99.90
2657;DHT22;1338;48.176;11.792;2022-11-25T07:50:13;1.30;99.90
2657;DHT22;1338;48.176;11.792;2022-11-25T07:52:41;1.40;99.90
2657;DHT22;1338;48.176;11.792;2022-11-25T07:55:10;1.40;99.90
2657;DHT22;1338;48.176;11.792;2022-11-25T07:57:38;1.50;99.90
2657;DHT22;1338;48.176;11.792;2022-11-25T08:00:07;1.50;99.90
2657;DHT22;1338;48.176;11.792;2022-11-25T08:02:38;1.50;99.90
2657;DHT22;1338;48.176;11.792;2022-11-25T08:05:09;1.80;99.90
2657;DHT22;1338;48.176;11.792;2022-11-25T08:07:37;1.70;99.90
2657;DHT22;1338;48.176;11.792;2022-11-25T08:10:06;1.60;99.90
2657;DHT22;1338;48.176;11.792;2022-11-25T08:12:34;1.70;99.90
2657;DHT22;1338;48.176;11.792;2022-11-25T08:15:03;1.70;99.90
2657;DHT22;1338;48.176;11.792;2022-11-25T08:17:32;1.60;99.90
2657;DHT22;1338;48.176;11.792;2022-11-25T08:20:00;1.60;99.90
2657;DHT22;1338;48.176;11.792;2022-11-25T08:22:30;1.50;99.90
2657;DHT22;1338;48.176;11.792;2022-11-25T08:24:58;1.50;99.90
2657;DHT22;1338;48.176;11.792;2022-11-25T08:27:26;1.60;99.90
2657;DHT22;1338;48.176;11.792;2022-11-25T08:29:55;1.60;99.90
2657;DHT22;1338;48.176;11.792;2022-11-25T08:32:23;1.60;99.90
2657;DHT22;1338;48.176;11.792;2022-11-25T08:34:51;1.70;99.90
2657;DHT22;1338;48.176;11.792;2022-11-25T08:37:20;1.80;99.90
2657;DHT22;1338;48.176;11.792;2022-11-25T08:39:49;1.90;99.90
2657;DHT22;1338;48.176;11.792;2022-11-25T08:42:19;2.10;99.90
2657;DHT22;1338;48.176;11.792;2022-11-25T08:44:51;2.10;99.90
2657;DHT22;1338;48.176;11.792;2022-11-25T08:47:20;2.10;99.90
2657;DHT22;1338;48.176;11.792;2022-11-25T08:49:50;2.20;99.90
2657;DHT22;1338;48.176;11.792;2022-11-25T08:52:18;2.20;99.90
2657;DHT22;1338;48.176;11.792;2022-11-25T08:54:49;2.40;99.90
2657;DHT22;1338;48.176;11.792;2022-11-25T08:57:17;2.40;99.90
2657;DHT22;1338;48.176;11.792;2022-11-25T08:59:45;2.40;99.90
2657;DHT22;1338;48.176;11.792;2022-11-25T09:02:14;2.40;99.90
2657;DHT22;1338;48.176;11.792;2022-11-25T09:04:43;2.50;99.90
2657;DHT22;1338;48.176;11.792;2022-11-25T09:07:12;2.60;99.90
2657;DHT22;1338;48.176;11.792;2022-11-25T09:09:40;2.60;99.90
2657;DHT22;1338;48.176;11.792;2022-11-25T09:12:09;2.60;99.90
2657;DHT22;1338;48.176;11.792;2022-11-25T09:14:38;2.60;99.90
2657;DHT22;1338;48.176;11.792;2022-11-25T09:17:10;2.80;99.90
2657;DHT22;1338;48.176;11.792;2022-11-25T09:19:38;2.80;99.90
2657;DHT22;1338;48.176;11.792;2022-11-25T09:22:07;2.90;99.90
2657;DHT22;1338;48.176;11.792;2022-11-25T09:24:35;2.80;99.90
2657;DHT22;1338;48.176;11.792;2022-11-25T09:27:03;2.80;99.90
2657;DHT22;1338;48.176;11.792;2022-11-25T09:29:33;2.40;99.90
2657;DHT22;1338;48.176;11.792;2022-11-25T09:32:01;2.50;99.90
2657;DHT22;1338;48.176;11.792;2022-11-25T09:34:30;2.70;99.90
2657;DHT22;1338;48.176;11.792;2022-11-25T09:36:58;2.80;99.90
2657;DHT22;1338;48.176;11.792;2022-11-25T09:39:26;2.90;99.90
2657;DHT22;1338;48.176;11.792;2022-11-25T09:42:06;3.00;99.90
2657;DHT22;1338;48.176;11.792;2022-11-25T09:45:05;3.20;99.90
2657;DHT22;1338;48.176;11.792;2022-11-25T09:48:04;3.20;99.90
2657;DHT22;1338;48.176;11.792;2022-11-25T09:50:40;3.30;99.00
2657;DHT22;1338;48.176;11.792;2022-11-25T09:53:23;3.30;99.90
2657;DHT22;1338;48.176;11.792;2022-11-25T09:56:02;3.30;99.90
2657;DHT22;1338;48.176;11.792;2022-11-25T09:58:34;3.50;99.90
2657;DHT22;1338;48.176;11.792;2022-11-25T10:01:08;3.50;99.90
2657;DHT22;1338;48.176;11.792;2022-11-25T10:03:41;3.50;99.90
2657;DHT22;1338;48.176;11.792;2022-11-25T10:06:15;3.50;99.90
2657;DHT22;1338;48.176;11.792;2022-11-25T10:08:47;3.50;81.20
2657;DHT22;1338;48.176;11.792;2022-11-25T10:11:23;3.50;1.00
2657;DHT22;1338;48.176;11.792;2022-11-25T10:13:58;3.60;1.00
2657;DHT22;1338;48.176;11.792;2022-11-25T10:16:35;3.70;1.00
2657;DHT22;1338;48.176;11.792;2022-11-25T10:19:14;4.00;1.00
2657;DHT22;1338;48.176;11.792;2022-11-25T10:21:43;4.40;1.00
2657;DHT22;1338;48.176;11.792;2022-11-25T10:24:13;4.50;1.00
2657;DHT22;1338;48.176;11.792;2022-11-25T10:26:47;4.70;1.00
2657;DHT22;1338;48.176;11.792;2022-11-25T10:29:22;4.80;1.00
2657;DHT22;1338;48.176;11.792;2022-11-25T10:31:57;4.90;1.00
2657;DHT22;1338;48.176;11.792;2022-11-25T10:34:33;5.00;1.00
2657;DHT22;1338;48.176;11.792;2022-11-25T10:37:18;5.10;1.00
2657;DHT22;1338;48.176;11.792;2022-11-25T10:39:50;5.20;1.00
2657;DHT22;1338;48.176;11.792;2022-11-25T10:42:21;5.40;1.00
2657;DHT22;1338;48.176;11.792;2022-11-25T10:44:49;5.40;1.00
2657;DHT22;1338;48.176;11.792;2022-11-25T10:47:29;5.50;1.00
2657;DHT22;1338;48.176;11.792;2022-11-25T10:50:07;5.60;1.00
2657;DHT22;1338;48.176;11.792;2022-11-25T10:52:41;5.80;1.00
2657;DHT22;1338;48.176;11.792;2022-11-25T10:55:13;5.80;1.00
2657;DHT22;1338;48.176;11.792;2022-11-25T10:57:41;5.80;1.00
2657;DHT22;1338;48.176;11.792;2022-11-25T11:00:25;6.00;1.00
2657;DHT22;1338;48.176;11.792;2022-11-25T11:02:55;6.30;1.00
2657;DHT22;1338;48.176;11.792;2022-11-25T11:05:25;6.50;1.00
2657;DHT22;1338;48.176;11.792;2022-11-25T11:08:17;6.60;1.00
2657;DHT22;1338;48.176;11.792;2022-11-25T11:10:46;6.80;1.00
2657;DHT22;1338;48.176;11.792;2022-11-25T11:13:24;6.60;1.00
2657;DHT22;1338;48.176;11.792;2022-11-25T11:15:53;7.00;1.00
2657;DHT22;1338;48.176;11.792;2022-11-25T11:18:27;7.00;1.00
2657;DHT22;1338;48.176;11.792;2022-11-25T11:20:58;7.40;1.00
2657;DHT22;1338;48.176;11.792;2022-11-25T11:23:28;7.90;1.00
2657;DHT22;1338;48.176;11.792;2022-11-25T11:25:59;8.00;1.00
2657;DHT22;1338;48.176;11.792;2022-11-25T11:28:30;7.80;1.00
2657;DHT22;1338;48.176;11.792;2022-11-25T11:31:07;8.00;1.00
2657;DHT22;1338;48.176;11.792;2022-11-25T11:33:51;8.40;1.00
2657;DHT22;1338;48.176;11.792;2022-11-25T11:36:33;8.20;1.00
2657;DHT22;1338;48.176;11.792;2022-11-25T11:39:21;7.60;1.00
2657;DHT22;1338;48.176;11.792;2022-11-25T11:41:57;7.60;1.00
2657;DHT22;1338;48.176;11.792;2022-11-25T11:44:33;7.60;1.00
2657;DHT22;1338;48.176;11.792;2022-11-25T11:47:13;7.60;1.00
2657;DHT22;1338;48.176;11.792;2022-11-25T11:50:02;7.60;1.00
2657;DHT22;1338;48.176;11.792;2022-11-25T11:52:39;7.50;1.00
2657;DHT22;1338;48.176;11.792;2022-11-25T11:55:23;7.70;1.00
2657;DHT22;1338;48.176;11.792;2022-11-25T11:57:59;7.70;1.00
2657;DHT22;1338;48.176;11.792;2022-11-25T12:00:32;7.60;1.00
2657;DHT22;1338;48.176;11.792;2022-11-25T12:03:12;7.60;1.00
2657;DHT22;1338;48.176;11.792;2022-11-25T12:05:42;7.90;1.00
2657;DHT22;1338;48.176;11.792;2022-11-25T12:08:14;8.00;1.00
2657;DHT22;1338;48.176;11.792;2022-11-25T12:10:48;8.10;1.00
2657;DHT22;1338;48.176;11.792;2022-11-25T12:13:22;8.20;1.00
2657;DHT22;1338;48.176;11.792;2022-11-25T12:15:54;8.30;1.00
2657;DHT22;1338;48.176;11.792;2022-11-25T12:18:33;8.50;1.00
2657;DHT22;1338;48.176;11.792;2022-11-25T12:21:05;8.60;1.00
2657;DHT22;1338;48.176;11.792;2022-11-25T12:23:41;8.60;1.00
2657;DHT22;1338;48.176;11.792;2022-11-25T12:26:16;8.70;1.00
2657;DHT22;1338;48.176;11.792;2022-11-25T12:28:51;8.80;1.00
2657;DHT22;1338;48.176;11.792;2022-11-25T12:31:23;8.70;1.00
2657;DHT22;1338;48.176;11.792;2022-11-25T12:33:59;9.20;1.00
2657;DHT22;1338;48.176;11.792;2022-11-25T12:36:33;9.70;1.00
2657;DHT22;1338;48.176;11.792;2022-11-25T12:39:04;9.60;1.00
2657;DHT22;1338;48.176;11.792;2022-11-25T12:41:40;10.30;1.00
2657;DHT22;1338;48.176;11.792;2022-11-25T12:44:13;9.70;1.00
2657;DHT22;1338;48.176;11.792;2022-11-25T12:46:44;10.10;1.00
2657;DHT22;1338;48.176;11.792;2022-11-25T12:49:17;10.10;1.00
2657;DHT22;1338;48.176;11.792;2022-11-25T12:52:09;10.40;1.00
2657;DHT22;1338;48.176;11.792;2022-11-25T12:54:51;10.20;1.00
2657;DHT22;1338;48.176;11.792;2022-11-25T13:00:19;10.50;1.00
2657;DHT22;1338;48.176;11.792;2022-11-25T13:03:35;10.90;1.00
2657;DHT22;1338;48.176;11.792;2022-11-25T13:09:15;10.00;1.00
2657;DHT22;1338;48.176;11.792;2022-11-25T13:14:58;10.50;1.00
2657;DHT22;1338;48.176;11.792;2022-11-25T13:17:33;11.20;1.00
2657;DHT22;1338;48.176;11.792;2022-11-25T13:20:34;11.50;1.00
2657;DHT22;1338;48.176;11.792;2022-11-25T13:23:07;12.10;1.00
2657;DHT22;1338;48.176;11.792;2022-11-25T13:25:51;12.40;99.90
2657;DHT22;1338;48.176;11.792;2022-11-25T13:28:31;12.00;99.90
2657;DHT22;1338;48.176;11.792;2022-11-25T13:31:17;11.90;99.90
2657;DHT22;1338;48.176;11.792;2022-11-25T13:34:07;11.10;99.90
2657;DHT22;1338;48.176;11.792;2022-11-25T13:36:45;11.20;99.90
2657;DHT22;1338;48.176;11.792;2022-11-25T13:39:15;11.30;99.90
2657;DHT22;1338;48.176;11.792;2022-11-25T13:41:58;11.00;1.00
2657;DHT22;1338;48.176;11.792;2022-11-25T13:44:29;10.20;1.00
2657;DHT22;1338;48.176;11.792;2022-11-25T13:47:30;10.00;1.00
2657;DHT22;1338;48.176;11.792;2022-11-25T13:50:01;9.80;1.00
2657;DHT22;1338;48.176;11.792;2022-11-25T13:52:37;9.80;1.00
2657;DHT22;1338;48.176;11.792;2022-11-25T13:55:20;9.70;1.00
2657;DHT22;1338;48.176;11.792;2022-11-25T13:58:06;9.70;1.00
2657;DHT22;1338;48.176;11.792;2022-11-25T14:00:59;9.60;1.00
2657;DHT22;1338;48.176;11.792;2022-11-25T14:03:56;9.70;1.00
2657;DHT22;1338;48.176;11.792;2022-11-25T14:06:37;9.70;1.00
2657;DHT22;1338;48.176;11.792;2022-11-25T14:09:19;9.70;1.00
2657;DHT22;1338;48.176;11.792;2022-11-25T14:12:19;9.70;1.00
2657;DHT22;1338;48.176;11.792;2022-11-25T14:21:34;9.40;1.00
2657;DHT22;1338;48.176;11.792;2022-11-25T14:24:20;9.40;1.00
2657;DHT22;1338;48.176;11.792;2022-11-25T14:26:51;9.00;1.00
2657;DHT22;1338;48.176;11.792;2022-11-25T14:29:22;9.10;1.00
2657;DHT22;1338;48.176;11.792;2022-11-25T14:31:54;9.10;1.00
2657;DHT22;1338;48.176;11.792;2022-11-25T14:34:28;9.00;1.00
2657;DHT22;1338;48.176;11.792;2022-11-25T14:37:03;9.00;1.00
2657;DHT22;1338;48.176;11.792;2022-11-25T14:39:38;9.00;1.00
2657;DHT22;1338;48.176;11.792;2022-11-25T14:42:10;9.00;1.00
2657;DHT22;1338;48.176;11.792;2022-11-25T14:44:45;9.00;1.00
2657;DHT22;1338;48.176;11.792;2022-11-25T14:47:14;9.00;1.00
2657;DHT22;1338;48.176;11.792;2022-11-25T14:49:49;8.80;1.00
2657;DHT22;1338;48.176;11.792;2022-11-25T14:52:39;8.70;1.00
2657;DHT22;1338;48.176;11.792;2022-11-25T14:55:10;8.90;1.00
2657;DHT22;1338;48.176;11.792;2022-11-25T14:57:42;8.80;1.00
2657;DHT22;1338;48.176;11.792;2022-11-25T15:00:15;8.50;1.00
2657;DHT22;1338;48.176;11.792;2022-11-25T15:02:52;8.40;1.00
2657;DHT22;1338;48.176;11.792;2022-11-25T15:05:23;8.20;1.00
2657;DHT22;1338;48.176;11.792;2022-11-25T15:07:58;8.10;1.00
2657;DHT22;1338;48.176;11.792;2022-11-25T15:10:31;8.10;1.00
2657;DHT22;1338;48.176;11.792;2022-11-25T15:13:11;8.00;1.00
2657;DHT22;1338;48.176;11.792;2022-11-25T15:15:43;8.00;1.00
2657;DHT22;1338;48.176;11.792;2022-11-25T15:18:17;7.90;1.00
2657;DHT22;1338;48.176;11.792;2022-11-25T15:20:47;7.80;1.00
2657;DHT22;1338;48.176;11.792;2022-11-25T15:23:20;7.60;1.00
2657;DHT22;1338;48.176;11.792;2022-11-25T15:25:51;7.50;1.00
2657;DHT22;1338;48.176;11.792;2022-11-25T15:28:20;7.60;1.00
2657;DHT22;1338;48.176;11.792;2022-11-25T15:30:55;7.60;1.00
2657;DHT22;1338;48.176;11.792;2022-11-25T15:33:25;7.50;1.00
2657;DHT22;1338;48.176;11.792;2022-11-25T15:35:54;7.40;1.00
2657;DHT22;1338;48.176;11.792;2022-11-25T15:38:39;7.40;1.00
2657;DHT22;1338;48.176;11.792;2022-11-25T15:41:26;7.20;1.00
2657;DHT22;1338;48.176;11.792;2022-11-25T15:43:59;7.00;1.00
2657;DHT22;1338;48.176;11.792;2022-11-25T15:46:29;7.00;78.70
2657;DHT22;1338;48.176;11.792;2022-11-25T15:49:00;6.90;99.90
2657;DHT22;1338;48.176;11.792;2022-11-25T15:51:36;6.80;99.90
2657;DHT22;1338;48.176;11.792;2022-11-25T15:54:15;6.80;99.90
2657;DHT22;1338;48.176;11.792;2022-11-25T15:56:46;6.60;1.00
2657;DHT22;1338;48.176;11.792;2022-11-25T15:59:45;6.50;1.00
2657;DHT22;1338;48.176;11.792;2022-11-25T16:02:35;6.50;1.00
2657;DHT22;1338;48.176;11.792;2022-11-25T16:05:32;6.50;1.00
2657;DHT22;1338;48.176;11.792;2022-11-25T16:08:22;6.40;1.00
2657;DHT22;1338;48.176;11.792;2022-11-25T16:10:54;6.40;1.00
2657;DHT22;1338;48.176;11.792;2022-11-25T16:13:30;6.40;1.00
2657;DHT22;1338;48.176;11.792;2022-11-25T16:16:12;6.30;1.00
2657;DHT22;1338;48.176;11.792;2022-11-25T16:18:43;6.20;1.00
2657;DHT22;1338;48.176;11.792;2022-11-25T16:21:16;6.20;1.00
2657;DHT22;1338;48.176;11.792;2022-11-25T16:23:48;6.10;1.00
2657;DHT22;1338;48.176;11.792;2022-11-25T16:26:23;6.10;1.00
2657;DHT22;1338;48.176;11.792;2022-11-25T16:28:54;6.10;10.80
2657;DHT22;1338;48.176;11.792;2022-11-25T16:31:23;6.10;61.60
2657;DHT22;1338;48.176;11.792;2022-11-25T16:33:53;6.00;99.90
2657;DHT22;1338;48.176;11.792;2022-11-25T16:36:22;6.00;99.90
2657;DHT22;1338;48.176;11.792;2022-11-25T16:38:53;6.00;99.90
2657;DHT22;1338;48.176;11.792;2022-11-25T16:41:25;6.00;99.90
2657;DHT22;1338;48.176;11.792;2022-11-25T16:43:53;6.00;99.90
2657;DHT22;1338;48.176;11.792;2022-11-25T16:46:26;6.00;1.00
2657;DHT22;1338;48.176;11.792;2022-11-25T16:48:55;6.00;1.00
2657;DHT22;1338;48.176;11.792;2022-11-25T16:51:23;6.00;1.00
2657;DHT22;1338;48.176;11.792;2022-11-25T16:53:52;6.00;1.00
2657;DHT22;1338;48.176;11.792;2022-11-25T16:56:25;6.00;1.00